createdAt,value
2022-08-28T00:04:00.693Z,100.00
2022-08-28T00:08:02.332Z,100.00
2022-08-28T00:12:05.295Z,100.00
2022-08-28T00:16:07.157Z,100.00
2022-08-28T00:20:11.202Z,100.00
2022-08-28T00:24:12.887Z,100.00
2022-08-28T00:28:24.369Z,100.00
2022-08-28T00:32:27.004Z,100.00
2022-08-28T00:36:30.123Z,100.00
2022-08-28T00:40:33.112Z,100.00
2022-08-28T00:44:36.724Z,100.00
2022-08-28T00:48:38.336Z,100.00
2022-08-28T00:52:40.466Z,100.00
2022-08-28T00:56:42.727Z,100.00
2022-08-28T01:00:44.240Z,100.00
2022-08-28T01:04:45.931Z,100.00
2022-08-28T01:08:50.447Z,100.00
2022-08-28T01:12:56.166Z,100.00
2022-08-28T01:16:58.334Z,100.00
2022-08-28T01:21:20.118Z,100.00
2022-08-28T01:25:24.635Z,100.00
2022-08-28T01:29:28.976Z,100.00
2022-08-28T01:33:30.469Z,100.00
2022-08-28T01:37:32.147Z,100.00
2022-08-28T01:41:34.747Z,100.00
2022-08-28T01:45:39.162Z,100.00
2022-08-28T01:49:40.638Z,100.00
2022-08-28T01:53:43.349Z,100.00
2022-08-28T01:57:51.425Z,100.00
2022-08-28T02:01:53.623Z,100.00
2022-08-28T02:05:55.164Z,100.00
2022-08-28T02:09:56.641Z,100.00
2022-08-28T02:13:59.107Z,100.00
2022-08-28T02:18:01.889Z,100.00
2022-08-28T02:22:08.134Z,100.00
2022-08-28T02:26:11.156Z,100.00
2022-08-28T02:30:14.592Z,100.00
2022-08-28T02:34:16.139Z,100.00
2022-08-28T02:38:17.929Z,100.00
2022-08-28T02:42:20.391Z,100.00
2022-08-28T02:46:21.956Z,100.00
2022-08-28T02:50:24.101Z,100.00
2022-08-28T02:54:29.431Z,100.00
2022-08-28T02:58:32.599Z,100.00
2022-08-28T03:02:34.473Z,100.00
2022-08-28T03:06:36.177Z,100.00
2022-08-28T03:10:37.687Z,100.00
2022-08-28T03:14:39.908Z,100.00
2022-08-28T03:18:41.418Z,100.00
2022-08-28T03:23:02.015Z,100.00
2022-08-28T03:27:04.879Z,100.00
2022-08-28T03:31:08.761Z,100.00
2022-08-28T03:35:11.987Z,100.00
2022-08-28T03:39:13.882Z,100.00
2022-08-28T03:43:19.551Z,100.00
2022-08-28T03:47:21.027Z,100.00
2022-08-28T03:51:29.727Z,100.00
2022-08-28T03:55:31.438Z,100.00
2022-08-28T03:59:33.574Z,100.00
2022-08-28T04:03:36.150Z,100.00
2022-08-28T04:07:37.760Z,100.00
2022-08-28T04:11:42.947Z,100.00
2022-08-28T04:15:44.867Z,100.00
2022-08-28T04:19:46.364Z,100.00
2022-08-28T04:23:48.227Z,100.00
2022-08-28T04:27:51.254Z,100.00
2022-08-28T04:31:53.095Z,100.00
2022-08-28T04:35:55.544Z,100.00
2022-08-28T04:39:57.139Z,100.00
2022-08-28T04:43:59.012Z,100.00
2022-08-28T04:48:00.469Z,100.00
2022-08-28T04:52:07.028Z,100.00
2022-08-28T04:56:11.178Z,100.00
2022-08-28T05:00:12.979Z,100.00
2022-08-28T05:04:14.446Z,100.00
2022-08-28T05:08:18.041Z,100.00
2022-08-28T05:12:19.850Z,100.00
2022-08-28T05:16:22.455Z,100.00
2022-08-28T05:20:23.959Z,100.00
2022-08-28T05:24:25.515Z,100.00
2022-08-28T05:28:27.157Z,100.00
2022-08-28T05:32:28.654Z,100.00
2022-08-28T05:36:34.557Z,100.00
2022-08-28T05:40:43.309Z,100.00
2022-08-28T05:44:44.781Z,100.00
2022-08-28T05:48:48.568Z,100.00
2022-08-28T05:52:50.327Z,100.00
2022-08-28T05:56:51.858Z,100.00
2022-08-28T06:00:53.451Z,100.00
2022-08-28T06:04:54.933Z,100.00
2022-08-28T06:09:24.293Z,100.00
2022-08-28T06:13:29.777Z,100.00
2022-08-28T06:17:31.233Z,100.00
2022-08-28T06:21:33.491Z,100.00
2022-08-28T06:25:46.764Z,100.00
2022-08-28T06:29:48.469Z,100.00
2022-08-28T06:33:49.988Z,100.00
2022-08-28T06:37:51.433Z,100.00
2022-08-28T06:41:53.672Z,100.00
2022-08-28T06:45:57.595Z,100.00
2022-08-28T06:49:59.182Z,100.00
2022-08-28T06:54:01.301Z,100.00
2022-08-28T06:58:04.179Z,100.00
2022-08-28T07:02:06.325Z,100.00
2022-08-28T07:06:09.829Z,100.00
2022-08-28T07:10:11.383Z,100.00
2022-08-28T07:14:13.261Z,100.00
2022-08-28T07:18:15.198Z,100.00
2022-08-28T07:22:16.649Z,100.00
2022-08-28T07:26:22.482Z,100.00
2022-08-28T07:30:23.989Z,100.00
2022-08-28T07:34:26.991Z,100.00
2022-08-28T07:38:29.005Z,100.00
2022-08-28T07:42:49.103Z,100.00
2022-08-28T07:46:56.016Z,100.00
2022-08-28T07:50:57.494Z,100.00
2022-08-28T07:54:59.167Z,100.00
2022-08-28T07:59:01.578Z,100.00
2022-08-28T08:03:03.110Z,100.00
2022-08-28T08:07:06.274Z,100.00
2022-08-28T08:11:11.687Z,100.00
2022-08-28T08:15:18.356Z,100.00
2022-08-28T08:19:20.461Z,100.00
2022-08-28T08:23:21.952Z,100.00
2022-08-28T08:27:24.001Z,100.00
2022-08-28T08:31:29.631Z,100.00
2022-08-28T08:35:31.277Z,100.00
2022-08-28T08:39:34.842Z,100.00
2022-08-28T08:43:57.095Z,100.00
2022-08-28T08:48:01.050Z,100.00
2022-08-28T08:52:11.323Z,100.00
2022-08-28T08:56:16.697Z,100.00
2022-08-28T09:00:19.705Z,100.00
2022-08-28T09:04:46.177Z,100.00
2022-08-28T09:08:52.557Z,100.00
2022-08-28T09:13:03.019Z,98.45
2022-08-28T09:17:06.841Z,99.30
2022-08-28T09:21:08.600Z,99.69
2022-08-28T09:25:12.569Z,100.00
2022-08-28T09:29:18.934Z,97.50
2022-08-28T09:33:42.169Z,99.87
2022-08-28T09:37:44.142Z,99.60
2022-08-28T09:42:16.386Z,100.00
2022-08-28T09:46:27.907Z,95.90
2022-08-28T09:50:43.371Z,90.93
2022-08-28T09:54:45.459Z,91.60
2022-08-28T09:58:52.014Z,92.87
2022-08-28T10:03:07.436Z,92.71
2022-08-28T10:07:26.915Z,96.60
2022-08-28T10:11:28.614Z,97.32
2022-08-28T10:15:43.805Z,97.84
2022-08-28T10:20:10.360Z,97.32
2022-08-28T10:24:53.607Z,92.61
2022-08-28T10:29:21.835Z,89.31
2022-08-28T10:33:35.437Z,83.90
2022-08-28T10:38:00.514Z,83.43
2022-08-28T10:42:04.637Z,78.32
2022-08-28T10:46:24.138Z,77.80
2022-08-28T10:50:45.115Z,76.96
2022-08-28T10:55:01.208Z,82.16
2022-08-28T10:59:02.699Z,80.24
2022-08-28T11:03:32.923Z,77.69
2022-08-28T11:07:41.475Z,84.79
2022-08-28T11:11:44.869Z,80.05
2022-08-28T11:15:51.691Z,85.75
2022-08-28T11:20:12.122Z,87.13
2022-08-28T11:24:35.818Z,85.45
2022-08-28T11:28:42.934Z,82.21
2022-08-28T11:32:50.404Z,81.69
2022-08-28T11:37:01.164Z,77.82
2022-08-28T11:41:14.411Z,79.47
2022-08-28T11:45:48.106Z,73.74
2022-08-28T11:49:49.703Z,75.59
2022-08-28T11:54:03.751Z,72.68
2022-08-28T11:58:17.704Z,75.58
2022-08-28T12:03:07.547Z,74.93
2022-08-28T12:07:11.721Z,70.53
2022-08-28T12:11:40.956Z,66.57
2022-08-28T12:15:42.894Z,66.75
2022-08-28T12:19:55.866Z,63.58
2022-08-28T12:24:07.223Z,62.84
2022-08-28T12:28:24.266Z,63.26
2022-08-28T12:32:47.797Z,61.79
2022-08-28T12:37:01.492Z,62.13
2022-08-28T12:41:03.185Z,59.84
2022-08-28T12:45:08.659Z,58.95
2022-08-28T12:49:30.902Z,62.16
2022-08-28T12:53:44.740Z,61.16
2022-08-28T12:57:47.916Z,59.23
2022-08-28T13:01:50.218Z,56.23
2022-08-28T13:06:04.756Z,57.41
2022-08-28T13:10:24.888Z,56.34
2022-08-28T13:14:38.325Z,56.09
2022-08-28T13:18:44.041Z,56.72
2022-08-28T13:22:50.841Z,55.13
2022-08-28T13:27:17.060Z,53.56
2022-08-28T13:31:25.696Z,56.34
2022-08-28T13:35:30.660Z,60.43
2022-08-28T13:39:33.559Z,60.88
2022-08-28T13:43:46.423Z,56.53
2022-08-28T13:47:47.913Z,55.80
2022-08-28T13:51:50.340Z,59.52
2022-08-28T13:55:52.921Z,61.35
2022-08-28T13:59:55.775Z,58.63
2022-08-28T14:03:58.819Z,58.15
2022-08-28T14:08:00.382Z,58.20
2022-08-28T14:12:02.894Z,53.22
2022-08-28T14:16:06.867Z,57.74
2022-08-28T14:20:09.114Z,56.78
2022-08-28T14:24:11.149Z,55.35
2022-08-28T14:28:16.675Z,56.98
2022-08-28T14:32:18.373Z,55.46
2022-08-28T14:36:22.906Z,54.78
2022-08-28T14:40:24.480Z,56.63
2022-08-28T14:44:26.279Z,63.56
2022-08-28T14:48:27.863Z,65.08
2022-08-28T14:52:29.729Z,62.75
2022-08-28T14:56:32.494Z,61.76
2022-08-28T15:00:39.106Z,58.14
2022-08-28T15:04:40.759Z,58.95
2022-08-28T15:08:42.264Z,62.71
2022-08-28T15:12:43.763Z,56.96
2022-08-28T15:16:47.787Z,62.15
2022-08-28T15:20:49.243Z,63.09
2022-08-28T15:24:53.168Z,63.49
2022-08-28T15:29:02.224Z,64.45
2022-08-28T15:33:04.655Z,61.89
2022-08-28T15:37:07.791Z,56.99
2022-08-28T15:41:24.856Z,57.87
2022-08-28T15:45:27.034Z,54.42
2022-08-28T15:49:30.898Z,53.80
2022-08-28T15:53:34.623Z,53.19
2022-08-28T15:57:36.411Z,51.89
2022-08-28T16:01:38.394Z,52.01
2022-08-28T16:05:40.869Z,53.49
2022-08-28T16:09:42.626Z,50.76
2022-08-28T16:13:45.114Z,50.79
2022-08-28T16:17:46.597Z,49.97
2022-08-28T16:21:48.126Z,50.75
2022-08-28T16:25:49.721Z,50.67
2022-08-28T16:29:52.822Z,50.54
2022-08-28T16:33:54.717Z,51.16
2022-08-28T16:37:56.300Z,52.21
2022-08-28T16:41:58.374Z,51.74
2022-08-28T16:45:59.854Z,51.40
2022-08-28T16:50:04.574Z,51.16
2022-08-28T16:54:06.875Z,50.88
2022-08-28T16:58:08.435Z,51.50
2022-08-28T17:02:10.190Z,50.70
2022-08-28T17:06:20.547Z,50.97
2022-08-28T17:10:25.096Z,53.96
2022-08-28T17:14:26.674Z,54.57
2022-08-28T17:18:28.783Z,55.32
2022-08-28T17:22:32.890Z,57.21
2022-08-28T17:26:34.536Z,57.46
2022-08-28T17:30:36.132Z,59.79
2022-08-28T17:34:37.722Z,63.25
2022-08-28T17:38:39.716Z,64.53
2022-08-28T17:42:42.103Z,67.87
2022-08-28T17:46:44.973Z,68.39
2022-08-28T17:50:46.500Z,67.29
2022-08-28T17:54:47.957Z,70.53
2022-08-28T17:58:49.640Z,72.77
2022-08-28T18:02:52.152Z,75.53
2022-08-28T18:06:54.340Z,75.14
2022-08-28T18:10:56.269Z,76.43
2022-08-28T18:14:58.190Z,79.69
2022-08-28T18:19:01.082Z,80.50
2022-08-28T18:23:02.959Z,80.38
2022-08-28T18:27:04.954Z,82.69
2022-08-28T18:31:06.711Z,82.78
2022-08-28T18:35:08.293Z,85.78
2022-08-28T18:39:10.454Z,86.71
2022-08-28T18:43:12.396Z,87.11
2022-08-28T18:47:13.946Z,88.63
2022-08-28T18:51:15.765Z,88.35
2022-08-28T18:55:25.223Z,92.77
2022-08-28T18:59:27.546Z,90.77
2022-08-28T19:03:29.830Z,92.25
2022-08-28T19:07:31.455Z,93.75
2022-08-28T19:11:33.270Z,97.53
2022-08-28T19:15:35.991Z,95.53
2022-08-28T19:19:38.165Z,99.46
2022-08-28T19:23:39.851Z,100.00
2022-08-28T19:27:46.545Z,99.38
2022-08-28T19:31:52.292Z,100.00
2022-08-28T19:35:54.948Z,100.00
2022-08-28T19:39:57.044Z,98.85
2022-08-28T19:43:58.594Z,100.00
2022-08-28T19:48:00.168Z,100.00
2022-08-28T19:52:03.135Z,100.00
2022-08-28T19:56:06.444Z,100.00
2022-08-28T20:00:09.749Z,100.00
2022-08-28T20:04:16.646Z,100.00
2022-08-28T20:08:19.936Z,98.53
2022-08-28T20:12:21.385Z,99.74
2022-08-28T20:16:24.333Z,99.08
2022-08-28T20:20:29.860Z,98.59
2022-08-28T20:24:31.618Z,98.56
2022-08-28T20:28:33.086Z,98.19
2022-08-28T20:32:35.015Z,96.86
2022-08-28T20:36:41.900Z,94.07
2022-08-28T20:40:43.391Z,96.28
2022-08-28T20:44:44.915Z,100.00
2022-08-28T20:48:46.612Z,100.00
2022-08-28T20:52:48.146Z,100.00
2022-08-28T20:56:51.480Z,100.00
2022-08-28T21:00:53.809Z,100.00
2022-08-28T21:05:01.300Z,100.00
2022-08-28T21:09:02.849Z,100.00
2022-08-28T21:13:05.892Z,100.00
2022-08-28T21:17:07.629Z,100.00
2022-08-28T21:21:10.439Z,100.00
2022-08-28T21:25:13.398Z,100.00
2022-08-28T21:29:15.455Z,100.00
2022-08-28T21:33:16.922Z,100.00
2022-08-28T21:37:18.724Z,100.00
2022-08-28T21:41:20.402Z,100.00
2022-08-28T21:45:22.355Z,100.00
2022-08-28T21:49:24.047Z,100.00
2022-08-28T21:53:25.533Z,100.00
2022-08-28T21:57:27.967Z,100.00
2022-08-28T22:01:29.547Z,100.00
2022-08-28T22:05:31.056Z,100.00
2022-08-28T22:09:32.804Z,100.00
2022-08-28T22:13:34.314Z,100.00
2022-08-28T22:17:35.769Z,100.00
2022-08-28T22:21:56.329Z,100.00
2022-08-28T22:25:57.777Z,100.00
2022-08-28T22:29:59.736Z,100.00
2022-08-28T22:34:03.044Z,100.00
2022-08-28T22:38:07.517Z,100.00
2022-08-28T22:42:10.026Z,100.00
2022-08-28T22:46:12.341Z,100.00
2022-08-28T22:50:14.003Z,100.00
2022-08-28T22:54:16.759Z,100.00
2022-08-28T22:58:18.234Z,100.00
2022-08-28T23:02:21.260Z,100.00
2022-08-28T23:06:22.767Z,100.00
2022-08-28T23:10:42.033Z,100.00
2022-08-28T23:14:48.633Z,100.00
2022-08-28T23:19:07.278Z,100.00
2022-08-28T23:23:11.360Z,100.00
2022-08-28T23:27:34.804Z,100.00
2022-08-28T23:31:35.655Z,100.00
2022-08-28T23:35:37.337Z,100.00
2022-08-28T23:39:38.881Z,100.00
2022-08-28T23:43:40.349Z,100.00
2022-08-28T23:47:44.812Z,100.00
2022-08-28T23:51:46.304Z,100.00
2022-08-28T23:55:48.785Z,100.00
2022-08-28T23:59:50.292Z,100.00
